Time;durP1;ratioP1;P1;durP2;ratioP2;P2;SDS_P1;SDS_P2;PMS_P1;PMS_P2;Temp;Humidity;BMP_temperature;BMP_pressure;BME280_temperature;BME280_humidity;BME280_pressure;Samples;Min_cycle;Max_cycle;Signal;HPM_P1;HPM_P2
2023/03/21 00:00:06;;;;;;;65.40;25.98;;;8.80;99.90;;;;;;5034746;28;20474;-60
2023/03/21 00:02:32;;;;;;;64.60;29.63;;;8.80;99.90;;;;;;5052534;28;20080;-60
2023/03/21 00:04:57;;;;;;;77.88;33.47;;;8.70;99.90;;;;;;5018900;28;20087;-60
2023/03/21 00:07:23;;;;;;;66.20;26.52;;;8.80;99.90;;;;;;5052642;28;20041;-60
2023/03/21 00:09:49;;;;;;;70.07;26.30;;;8.80;99.90;;;;;;5034155;28;20041;-60
2023/03/21 00:12:15;;;;;;;81.25;30.83;;;8.80;99.90;;;;;;5034797;28;20032;-60
2023/03/21 00:14:42;;;;;;;61.78;26.70;;;8.80;99.90;;;;;;5023599;28;20045;-60
2023/03/21 00:17:09;;;;;;;83.32;31.17;;;8.80;99.90;;;;;;5014221;28;20394;-60
2023/03/21 00:19:37;;;;;;;93.20;34.67;;;8.80;99.90;;;;;;5015630;28;20037;-60
2023/03/21 00:22:03;;;;;;;113.60;40.47;;;8.80;99.90;;;;;;5015358;28;20041;-60
2023/03/21 00:24:29;;;;;;;99.50;36.80;;;8.90;99.90;;;;;;5014326;28;20041;-60
2023/03/21 00:26:55;;;;;;;104.35;38.33;;;8.80;99.90;;;;;;5032612;28;20033;-60
2023/03/21 00:29:21;;;;;;;106.70;37.97;;;8.80;99.90;;;;;;4997736;28;20128;-60
2023/03/21 00:31:46;;;;;;;96.80;35.50;;;8.80;99.90;;;;;;5032965;28;20041;-60
2023/03/21 00:34:12;;;;;;;117.75;39.65;;;8.80;99.90;;;;;;5014827;28;20068;-60
2023/03/21 00:36:37;;;;;;;101.93;35.72;;;8.80;99.90;;;;;;5014294;28;20179;-60
2023/03/21 00:39:05;;;;;;;114.20;43.40;;;8.80;99.90;;;;;;5032359;28;20081;-60
2023/03/21 00:41:31;;;;;;;128.02;42.50;;;8.80;99.90;;;;;;5032705;28;20057;-60
2023/03/21 00:43:56;;;;;;;113.60;38.20;;;8.80;99.90;;;;;;5014119;28;20041;-60
2023/03/21 00:46:22;;;;;;;142.88;49.22;;;8.80;99.90;;;;;;4998210;28;20076;-60
2023/03/21 00:48:48;;;;;;;132.40;47.30;;;8.80;99.90;;;;;;5014899;28;20045;-60
2023/03/21 00:51:25;;;;;;;126.97;44.75;;;8.90;99.90;;;;;;5013871;28;20064;-60
2023/03/21 00:53:56;;;;;;;107.10;38.97;;;8.80;99.90;;;;;;5032571;28;20485;-60
2023/03/21 00:56:22;;;;;;;104.20;37.33;;;8.90;99.90;;;;;;5031902;28;20042;-60
2023/03/21 00:58:48;;;;;;;103.38;38.88;;;8.80;99.90;;;;;;5031558;28;20041;-60
2023/03/21 01:01:14;;;;;;;107.38;38.75;;;8.80;99.90;;;;;;5031821;28;20505;-60
2023/03/21 01:03:49;;;;;;;93.00;39.58;;;8.80;99.90;;;;;;4998514;28;20049;-60
2023/03/21 01:06:18;;;;;;;87.28;34.78;;;8.90;99.90;;;;;;4997355;28;20044;-60
2023/03/21 01:08:45;;;;;;;91.60;36.10;;;8.80;99.90;;;;;;5015027;28;20037;-60
2023/03/21 01:11:15;;;;;;;58.40;27.13;;;8.90;99.90;;;;;;5031915;28;20099;-61
2023/03/21 01:13:41;;;;;;;43.83;22.60;;;8.80;99.90;;;;;;4997430;28;20037;-60
2023/03/21 01:16:08;;;;;;;45.20;22.23;;;8.90;99.90;;;;;;4997826;28;20394;-60
2023/03/21 01:18:35;;;;;;;61.00;27.70;;;8.80;99.90;;;;;;5013990;28;20041;-60
2023/03/21 01:21:04;;;;;;;73.43;31.98;;;8.80;99.90;;;;;;5031761;28;20080;-60
2023/03/21 01:23:30;;;;;;;70.63;31.45;;;8.80;99.90;;;;;;5014183;28;20038;-60
2023/03/21 01:25:56;;;;;;;77.00;31.10;;;8.90;99.90;;;;;;5013698;28;20164;-60
2023/03/21 01:28:25;;;;;;;94.97;35.83;;;8.80;99.90;;;;;;4997493;28;20041;-60
2023/03/21 01:30:51;;;;;;;92.00;36.00;;;8.80;99.90;;;;;;4998203;28;20041;-60
2023/03/21 01:33:18;;;;;;;88.78;37.75;;;8.80;99.90;;;;;;5013306;28;20091;-60
2023/03/21 01:35:45;;;;;;;98.32;40.67;;;8.90;99.90;;;;;;5014368;28;20052;-60
2023/03/21 01:38:11;;;;;;;93.30;38.53;;;8.80;99.90;;;;;;5032180;28;20045;-60
2023/03/21 01:40:38;;;;;;;104.50;43.15;;;8.90;99.90;;;;;;5034987;28;20501;-60
2023/03/21 01:43:29;;;;;;;91.53;37.20;;;8.90;99.90;;;;;;5037681;28;20045;-60
2023/03/21 01:46:36;;;;;;;89.65;38.80;;;8.90;99.90;;;;;;5055916;28;20041;-60
2023/03/21 01:49:04;;;;;;;108.80;39.10;;;8.90;99.90;;;;;;5037060;28;20045;-60
2023/03/21 01:51:34;;;;;;;94.95;37.75;;;8.90;99.90;;;;;;5055768;28;20119;-60
2023/03/21 01:54:00;;;;;;;83.38;35.30;;;8.90;99.90;;;;;;5036844;28;20083;-60
2023/03/21 01:56:36;;;;;;;93.13;36.33;;;8.90;99.90;;;;;;5037427;28;20060;-60
2023/03/21 01:59:08;;;;;;;91.53;37.60;;;8.90;99.90;;;;;;5037407;28;20532;-60
2023/03/21 02:01:37;;;;;;;118.00;42.90;;;8.90;99.90;;;;;;5055055;28;20044;-60
2023/03/21 02:04:03;;;;;;;86.75;35.70;;;8.90;99.90;;;;;;5055016;28;20048;-60
2023/03/21 02:06:40;;;;;;;86.50;35.17;;;8.90;99.90;;;;;;5055319;28;20047;-60
2023/03/21 02:09:11;;;;;;;69.63;31.15;;;8.80;99.90;;;;;;5036591;28;20037;-60
2023/03/21 02:11:38;;;;;;;81.65;34.15;;;8.90;99.90;;;;;;5044526;28;20045;-60
2023/03/21 02:14:04;;;;;;;76.75;33.67;;;8.90;99.90;;;;;;5017578;28;20148;-60
2023/03/21 02:16:44;;;;;;;81.13;34.35;;;8.90;99.90;;;;;;5035031;28;20378;-60
2023/03/21 02:19:34;;;;;;;67.18;28.90;;;8.80;99.90;;;;;;5000794;28;20056;-60
2023/03/21 02:22:20;;;;;;;59.33;27.77;;;8.90;99.90;;;;;;5016989;28;20124;-60
2023/03/21 02:24:59;;;;;;;72.85;32.78;;;8.90;99.90;;;;;;5017982;28;20438;-60
2023/03/21 02:27:27;;;;;;;63.88;28.35;;;8.90;99.90;;;;;;5034482;28;20556;-60
2023/03/21 02:30:20;;;;;;;60.38;28.58;;;8.90;99.90;;;;;;5016698;28;20047;-60
2023/03/21 02:33:17;;;;;;;52.47;25.85;;;8.90;99.90;;;;;;5017433;28;20038;-60
2023/03/21 02:35:59;;;;;;;57.55;26.05;;;8.80;99.90;;;;;;5036961;28;20044;-60
2023/03/21 02:38:36;;;;;;;62.17;27.58;;;8.90;99.90;;;;;;5054828;28;21100;-60
2023/03/21 02:41:17;;;;;;;50.22;25.05;;;8.90;99.90;;;;;;5020189;28;20048;-60
2023/03/21 02:44:02;;;;;;;63.65;28.58;;;8.80;99.90;;;;;;5036267;28;20532;-60
2023/03/21 02:46:34;;;;;;;59.00;26.70;;;8.90;99.90;;;;;;5020703;28;20072;-60
2023/03/21 02:49:19;;;;;;;65.75;29.38;;;8.90;99.90;;;;;;5036671;28;20500;-60
2023/03/21 02:51:47;;;;;;;60.85;25.65;;;8.80;99.90;;;;;;5054251;28;20052;-60
2023/03/21 02:54:17;;;;;;;47.10;22.63;;;8.80;99.90;;;;;;5036525;28;20452;-60
2023/03/21 02:56:44;;;;;;;50.10;24.98;;;8.80;99.90;;;;;;5054505;28;20036;-60
2023/03/21 02:59:11;;;;;;;42.05;20.90;;;8.90;99.90;;;;;;5035262;28;20116;-60
2023/03/21 03:01:37;;;;;;;52.65;23.48;;;8.90;99.90;;;;;;5036990;28;20071;-60
2023/03/21 03:04:03;;;;;;;56.72;23.67;;;8.80;99.90;;;;;;5036054;28;20482;-60
2023/03/21 03:07:08;;;;;;;44.65;20.65;;;8.80;99.90;;;;;;5036184;28;20420;-60
2023/03/21 03:09:48;;;;;;;40.45;20.48;;;8.80;99.90;;;;;;5000087;28;20389;-60
2023/03/21 03:12:35;;;;;;;43.60;20.60;;;8.80;99.90;;;;;;5018969;28;20033;-60
2023/03/21 03:15:12;;;;;;;39.92;20.00;;;8.80;99.90;;;;;;5036224;28;20044;-60
2023/03/21 03:17:44;;;;;;;36.58;17.17;;;8.80;99.90;;;;;;5036000;28;20049;-60
2023/03/21 03:20:40;;;;;;;44.13;19.85;;;8.90;99.90;;;;;;5035194;28;20052;-60
2023/03/21 03:23:23;;;;;;;33.28;17.83;;;8.90;99.90;;;;;;5035867;28;20045;-60
2023/03/21 03:26:32;;;;;;;44.05;19.85;;;8.80;99.90;;;;;;5053203;28;20733;-60
2023/03/21 03:29:06;;;;;;;33.40;16.38;;;8.90;99.90;;;;;;5035178;28;20052;-60
2023/03/21 03:31:38;;;;;;;38.97;18.48;;;8.80;99.90;;;;;;5035907;28;20040;-60
2023/03/21 03:34:19;;;;;;;41.30;19.73;;;8.90;99.90;;;;;;5018638;28;20048;-60
2023/03/21 03:36:50;;;;;;;49.97;20.83;;;8.90;99.90;;;;;;5036454;28;20143;-60
2023/03/21 03:39:17;;;;;;;54.28;24.90;;;8.90;99.90;;;;;;5034109;28;20084;-60
2023/03/21 03:41:57;;;;;;;43.28;19.98;;;8.90;99.90;;;;;;5035904;28;20494;-60
2023/03/21 03:44:23;;;;;;;53.22;22.75;;;8.90;99.90;;;;;;5035094;28;20033;-60
2023/03/21 03:47:14;;;;;;;39.17;19.35;;;8.90;99.90;;;;;;5034977;28;20045;-65
2023/03/21 03:49:51;;;;;;;42.88;19.63;;;8.90;99.90;;;;;;5053586;28;20086;-65
2023/03/21 03:52:26;;;;;;;56.58;23.08;;;8.90;99.90;;;;;;5035431;28;20481;-65
2023/03/21 03:54:53;;;;;;;47.05;22.05;;;8.90;99.90;;;;;;5018348;28;20037;-65
2023/03/21 03:57:19;;;;;;;49.47;21.67;;;8.90;99.90;;;;;;5052770;28;20040;-65
2023/03/21 03:59:45;;;;;;;49.30;21.20;;;8.80;99.90;;;;;;5035629;28;20094;-65
2023/03/21 04:02:12;;;;;;;45.67;20.60;;;8.80;99.90;;;;;;5013863;28;20467;-65
2023/03/21 04:04:38;;;;;;;56.60;25.25;;;8.80;99.90;;;;;;5015839;28;20121;-65
2023/03/21 04:07:05;;;;;;;52.95;22.90;;;8.90;99.90;;;;;;5015350;28;20069;-65
2023/03/21 04:09:31;;;;;;;46.97;22.63;;;8.80;99.90;;;;;;4998330;28;20122;-65
2023/03/21 04:11:57;;;;;;;46.83;22.95;;;8.80;99.90;;;;;;5015582;28;20045;-65
2023/03/21 04:14:24;;;;;;;56.63;23.63;;;8.90;99.90;;;;;;5048140;28;20041;-65
2023/03/21 04:16:51;;;;;;;60.88;26.02;;;8.80;99.90;;;;;;4999233;28;20045;-65
2023/03/21 04:19:18;;;;;;;60.03;23.65;;;8.80;99.90;;;;;;5032497;28;20571;-65
2023/03/21 04:21:47;;;;;;;63.38;24.52;;;8.80;99.90;;;;;;5014498;28;20037;-65
2023/03/21 04:24:13;;;;;;;76.15;27.15;;;8.80;99.90;;;;;;5014457;28;20120;-65
2023/03/21 04:26:40;;;;;;;70.57;24.90;;;8.90;99.90;;;;;;5015419;28;20125;-65
2023/03/21 04:29:06;;;;;;;55.30;23.67;;;8.90;99.90;;;;;;5031848;28;20033;-65
2023/03/21 04:31:33;;;;;;;57.33;24.05;;;8.80;99.90;;;;;;5015025;28;20034;-65
2023/03/21 04:34:00;;;;;;;77.60;27.85;;;8.80;99.90;;;;;;5033083;28;20049;-65
2023/03/21 04:36:29;;;;;;;67.10;27.40;;;8.90;99.90;;;;;;5014059;28;20502;-65
2023/03/21 04:39:00;;;;;;;82.95;29.13;;;8.80;99.90;;;;;;5014664;28;20061;-65
2023/03/21 04:41:29;;;;;;;68.03;25.88;;;8.90;99.90;;;;;;5014985;28;20107;-65
2023/03/21 04:43:55;;;;;;;83.65;29.40;;;8.90;99.90;;;;;;5031953;28;20135;-65
2023/03/21 04:46:21;;;;;;;101.20;32.83;;;8.90;99.90;;;;;;4998006;28;20505;-65
2023/03/21 04:48:47;;;;;;;65.55;24.17;;;8.90;99.90;;;;;;5015013;28;20094;-65
2023/03/21 04:51:14;;;;;;;78.85;27.98;;;8.90;99.90;;;;;;5016877;28;20397;-65
2023/03/21 04:53:43;;;;;;;69.75;26.00;;;8.80;99.90;;;;;;5034278;28;20170;-65
2023/03/21 04:56:10;;;;;;;57.78;23.75;;;8.90;99.90;;;;;;5034009;28;20057;-65
2023/03/21 04:58:36;;;;;;;39.25;18.67;;;8.90;99.90;;;;;;5017285;28;20473;-65
2023/03/21 05:01:04;;;;;;;71.95;27.63;;;8.90;99.90;;;;;;5034482;28;20052;-64
2023/03/21 05:03:33;;;;;;;49.47;20.98;;;8.90;99.90;;;;;;5033775;28;20045;-65
2023/03/21 05:05:59;;;;;;;51.17;20.40;;;8.90;99.90;;;;;;5033554;28;20033;-64
2023/03/21 05:08:25;;;;;;;40.58;19.27;;;8.80;99.90;;;;;;5033734;28;20556;-65
2023/03/21 05:10:51;;;;;;;40.22;18.35;;;8.90;99.90;;;;;;5031161;28;20043;-65
2023/03/21 05:13:16;;;;;;;34.65;16.35;;;8.90;99.90;;;;;;4996716;28;20548;-65
2023/03/21 05:15:42;;;;;;;25.73;14.18;;;8.90;99.90;;;;;;5032302;28;20401;-65
2023/03/21 05:18:11;;;;;;;31.02;15.63;;;8.90;99.90;;;;;;5013165;28;20401;-65
2023/03/21 05:20:43;;;;;;;27.40;14.27;;;8.90;99.90;;;;;;5032073;28;20052;-65
2023/03/21 05:23:10;;;;;;;40.13;16.98;;;8.90;99.90;;;;;;4997409;28;20128;-64
2023/03/21 05:25:37;;;;;;;34.55;16.10;;;8.90;99.90;;;;;;5013942;28;20065;-64
2023/03/21 05:28:05;;;;;;;28.70;14.88;;;9.00;99.90;;;;;;5031873;28;20041;-64
2023/03/21 05:30:31;;;;;;;34.50;15.98;;;8.90;99.90;;;;;;5014426;28;20034;-64
2023/03/21 05:32:57;;;;;;;32.70;15.68;;;9.00;99.90;;;;;;5013916;28;20445;-64
2023/03/21 05:35:23;;;;;;;30.45;15.52;;;8.90;99.90;;;;;;5013771;28;20042;-65
2023/03/21 05:37:48;;;;;;;27.60;14.65;;;9.00;99.90;;;;;;5032143;28;20094;-65
2023/03/21 05:40:14;;;;;;;28.33;15.10;;;9.00;99.90;;;;;;5030656;28;20062;-64
2023/03/21 05:42:40;;;;;;;30.20;15.77;;;9.00;99.90;;;;;;5032024;28;20041;-65
2023/03/21 05:45:06;;;;;;;31.15;16.92;;;9.00;99.90;;;;;;5013965;28;20131;-65
2023/03/21 05:47:32;;;;;;;31.83;15.90;;;9.00;99.90;;;;;;5013476;28;20470;-64
2023/03/21 05:49:58;;;;;;;27.85;15.75;;;9.00;99.90;;;;;;5031815;28;20176;-64
2023/03/21 05:52:24;;;;;;;32.63;15.82;;;8.90;99.90;;;;;;5013793;28;20038;-64
2023/03/21 05:54:49;;;;;;;33.05;16.52;;;9.00;99.90;;;;;;5013710;28;20058;-64
2023/03/21 05:57:17;;;;;;;24.67;14.20;;;9.00;99.90;;;;;;5047232;28;20036;-65
2023/03/21 05:59:43;;;;;;;32.20;15.80;;;8.90;99.90;;;;;;5033671;28;20044;-64
2023/03/21 06:02:09;;;;;;;32.53;17.33;;;9.00;99.90;;;;;;5050171;28;20037;-65
2023/03/21 06:04:35;;;;;;;33.03;17.85;;;9.00;99.90;;;;;;5014921;28;20458;-64
2023/03/21 06:07:00;;;;;;;35.85;16.65;;;9.00;99.90;;;;;;5012921;28;20124;-65
2023/03/21 06:09:26;;;;;;;29.75;16.27;;;9.00;99.90;;;;;;5031562;28;20124;-64
2023/03/21 06:11:55;;;;;;;31.02;16.52;;;9.00;99.90;;;;;;5014048;28;20084;-64
2023/03/21 06:14:22;;;;;;;31.20;15.45;;;9.00;99.90;;;;;;5030376;28;20116;-65
2023/03/21 06:16:47;;;;;;;38.42;18.08;;;9.00;99.90;;;;;;5013801;28;20043;-64
2023/03/21 06:19:13;;;;;;;33.63;17.15;;;9.00;99.90;;;;;;5013353;28;20042;-64
2023/03/21 06:21:39;;;;;;;29.67;15.40;;;9.10;99.90;;;;;;5013319;28;20085;-65
2023/03/21 06:24:05;;;;;;;31.02;15.43;;;9.10;99.90;;;;;;5031552;28;20095;-64
2023/03/21 06:26:31;;;;;;;33.45;16.58;;;9.00;99.90;;;;;;5035295;28;20099;-64
2023/03/21 06:28:57;;;;;;;28.15;15.85;;;9.10;99.90;;;;;;5000392;28;20042;-64
2023/03/21 06:31:24;;;;;;;24.17;12.88;;;9.00;99.90;;;;;;5016835;28;20069;-64
2023/03/21 06:33:50;;;;;;;32.42;15.05;;;9.10;99.90;;;;;;5035463;28;20052;-64
2023/03/21 06:36:16;;;;;;;25.50;12.48;;;9.10;99.90;;;;;;5016137;28;20080;-64
2023/03/21 06:38:42;;;;;;;24.35;13.63;;;9.10;99.90;;;;;;5035058;28;20421;-64
2023/03/21 06:41:08;;;;;;;27.38;14.48;;;9.10;99.90;;;;;;5016976;28;20110;-64
2023/03/21 06:43:34;;;;;;;31.00;15.40;;;9.10;99.90;;;;;;5000095;28;20073;-64
2023/03/21 06:46:00;;;;;;;30.23;15.38;;;9.10;99.90;;;;;;5017104;28;20075;-64
2023/03/21 06:48:26;;;;;;;24.63;14.57;;;9.10;99.90;;;;;;5016808;28;20124;-64
2023/03/21 06:50:53;;;;;;;23.52;13.93;;;9.10;99.90;;;;;;4999928;28;20045;-64
2023/03/21 06:53:23;;;;;;;29.00;15.10;;;9.10;99.90;;;;;;5016475;28;20060;-64
2023/03/21 06:55:52;;;;;;;26.33;14.13;;;9.20;99.90;;;;;;5046651;28;20041;-64
2023/03/21 06:58:18;;;;;;;24.15;13.95;;;9.20;99.90;;;;;;5018720;28;20040;-65
2023/03/21 07:00:44;;;;;;;23.50;13.23;;;9.20;99.90;;;;;;5020455;28;20428;-64
2023/03/21 07:03:13;;;;;;;25.70;14.18;;;9.20;99.90;;;;;;5053941;28;20041;-64
2023/03/21 07:05:39;;;;;;;25.88;14.40;;;9.20;99.90;;;;;;5036823;28;20121;-64
2023/03/21 07:08:05;;;;;;;23.40;14.70;;;9.20;99.90;;;;;;5036067;28;20489;-64
2023/03/21 07:10:31;;;;;;;22.75;14.00;;;9.20;99.90;;;;;;5035739;28;20461;-64
2023/03/21 07:12:58;;;;;;;25.63;14.52;;;9.20;99.90;;;;;;5019820;28;20080;-64
2023/03/21 07:15:24;;;;;;;27.50;15.43;;;9.20;99.90;;;;;;5019444;28;20084;-64
2023/03/21 07:17:51;;;;;;;23.88;13.88;;;9.20;99.90;;;;;;5019075;28;20055;-64
2023/03/21 07:20:16;;;;;;;24.92;14.07;;;9.20;99.90;;;;;;5053814;28;20444;-64
2023/03/21 07:22:42;;;;;;;22.23;12.48;;;9.20;99.90;;;;;;5026052;28;20045;-64
2023/03/21 07:25:09;;;;;;;26.33;14.60;;;9.20;99.90;;;;;;5032956;28;20041;-64
2023/03/21 07:27:35;;;;;;;22.45;13.13;;;9.20;99.90;;;;;;5000125;28;20125;-64
2023/03/21 07:30:03;;;;;;;22.45;13.55;;;9.30;99.90;;;;;;4999952;28;20120;-65
2023/03/21 07:32:32;;;;;;;25.27;14.48;;;9.20;99.90;;;;;;5015433;28;20080;-64
2023/03/21 07:34:59;;;;;;;24.50;14.20;;;9.20;99.90;;;;;;5016305;28;20120;-64
2023/03/21 07:37:25;;;;;;;28.30;15.43;;;9.20;99.90;;;;;;5023879;28;20045;-65
2023/03/21 07:39:51;;;;;;;23.95;15.07;;;9.20;99.90;;;;;;5035058;28;20561;-64
2023/03/21 07:42:17;;;;;;;23.83;14.43;;;9.30;99.90;;;;;;5018873;28;20124;-64
2023/03/21 07:44:43;;;;;;;22.15;14.05;;;9.20;99.90;;;;;;5035585;28;20090;-64
2023/03/21 07:47:08;;;;;;;23.50;14.48;;;9.20;99.90;;;;;;5052151;28;20499;-64
2023/03/21 07:49:35;;;;;;;26.50;15.63;;;9.30;99.90;;;;;;5035666;28;20719;-64
2023/03/21 07:52:01;;;;;;;21.23;12.98;;;9.20;99.90;;;;;;5053419;28;20037;-64
2023/03/21 07:54:27;;;;;;;22.80;14.43;;;9.30;99.90;;;;;;5018266;28;20098;-64
2023/03/21 07:56:54;;;;;;;22.88;14.38;;;9.30;99.90;;;;;;5035631;28;20040;-64
2023/03/21 07:59:20;;;;;;;20.17;13.40;;;9.30;99.90;;;;;;5018460;28;20528;-64
2023/03/21 08:01:45;;;;;;;19.58;12.85;;;9.30;99.90;;;;;;5052750;28;20037;-64
2023/03/21 08:04:11;;;;;;;19.75;12.02;;;9.30;99.90;;;;;;5052500;28;20041;-64
2023/03/21 08:06:37;;;;;;;16.27;10.18;;;9.30;99.90;;;;;;5034607;28;20039;-64
2023/03/21 08:09:02;;;;;;;20.00;11.75;;;9.30;99.90;;;;;;5035182;28;20130;-64
2023/03/21 08:11:31;;;;;;;17.02;10.55;;;9.40;99.90;;;;;;5029540;28;20041;-65
2023/03/21 08:13:58;;;;;;;18.63;11.15;;;9.40;99.90;;;;;;5034448;28;20044;-64
2023/03/21 08:16:24;;;;;;;19.27;12.23;;;9.30;99.90;;;;;;5038084;28;20041;-64
2023/03/21 08:18:49;;;;;;;20.00;12.52;;;9.30;99.90;;;;;;5033353;28;20119;-64
2023/03/21 08:21:15;;;;;;;18.77;11.43;;;9.30;99.90;;;;;;5014082;28;20128;-65
2023/03/21 08:23:41;;;;;;;22.60;14.40;;;9.30;99.90;;;;;;5047254;28;20421;-64
2023/03/21 08:26:08;;;;;;;19.75;13.25;;;9.40;99.90;;;;;;5034521;28;20397;-65
2023/03/21 08:28:35;;;;;;;19.80;13.02;;;9.40;99.90;;;;;;5034487;28;20048;-64
2023/03/21 08:31:10;;;;;;;18.60;12.10;;;9.30;99.90;;;;;;5017695;28;20095;-65
2023/03/21 08:33:36;;;;;;;;;;;9.40;99.90;;;;;;5030678;28;20099;-64
2023/03/21 08:36:04;;;;;;;20.08;13.07;;;9.40;99.90;;;;;;5029165;28;20427;-64
2023/03/21 08:38:32;;;;;;;19.67;12.48;;;9.40;99.90;;;;;;5029845;28;20048;-64
2023/03/21 08:41:01;;;;;;;22.30;14.27;;;9.40;99.90;;;;;;5029931;28;20057;-64
2023/03/21 08:43:28;;;;;;;19.13;13.80;;;9.30;99.90;;;;;;5011193;28;20075;-64
2023/03/21 08:45:54;;;;;;;24.25;14.38;;;9.40;99.90;;;;;;5021730;28;20043;-64
2023/03/21 08:48:20;;;;;;;23.58;14.82;;;9.40;99.90;;;;;;5049474;28;20115;-64
2023/03/21 08:50:46;;;;;;;22.08;14.13;;;9.40;99.90;;;;;;5013187;28;20140;-64
2023/03/21 08:53:11;;;;;;;21.05;14.70;;;9.50;99.90;;;;;;5033186;28;20124;-64
2023/03/21 08:55:37;;;;;;;20.85;14.60;;;9.40;99.90;;;;;;5030134;28;20049;-64
2023/03/21 08:58:03;;;;;;;25.88;16.02;;;9.50;99.90;;;;;;5030018;28;20034;-64
2023/03/21 09:00:29;;;;;;;29.85;18.98;;;9.50;99.90;;;;;;5015528;28;20164;-64
2023/03/21 09:02:57;;;;;;;28.00;19.40;;;9.50;99.90;;;;;;5031025;28;20581;-64
2023/03/21 09:05:25;;;;;;;33.58;20.70;;;9.50;99.90;;;;;;5048689;28;20108;-64
2023/03/21 09:07:56;;;;;;;30.88;20.63;;;9.60;99.90;;;;;;5031523;28;20510;-64
2023/03/21 09:10:22;;;;;;;27.80;19.25;;;9.60;99.90;;;;;;5030357;28;20378;-64
2023/03/21 09:12:50;;;;;;;22.40;17.15;;;9.60;99.90;;;;;;5030907;28;20117;-64
2023/03/21 09:15:17;;;;;;;27.55;18.77;;;9.50;99.90;;;;;;5031017;28;20040;-64
2023/03/21 09:17:47;;;;;;;29.45;18.95;;;9.60;99.90;;;;;;5048370;28;20119;-64
2023/03/21 09:20:29;;;;;;;29.38;18.48;;;9.60;99.90;;;;;;5046849;28;20041;-64
2023/03/21 09:22:56;;;;;;;27.25;18.80;;;9.70;99.90;;;;;;5009852;28;20102;-64
2023/03/21 09:25:23;;;;;;;31.75;17.70;;;9.70;99.90;;;;;;5027332;28;20087;-64
2023/03/21 09:27:50;;;;;;;29.65;19.35;;;9.70;99.90;;;;;;5021492;28;20407;-65
2023/03/21 09:30:19;;;;;;;28.65;19.70;;;9.70;99.90;;;;;;4994576;28;20128;-64
2023/03/21 09:32:49;;;;;;;26.65;19.05;;;9.70;99.90;;;;;;5041830;28;20071;-65
2023/03/21 09:35:17;;;;;;;31.40;18.15;;;9.70;99.90;;;;;;5048663;28;20090;-65
2023/03/21 09:37:44;;;;;;;26.40;17.13;;;9.70;99.90;;;;;;5048405;28;20040;-64
2023/03/21 09:40:39;;;;;;;25.23;17.83;;;9.70;99.90;;;;;;5047558;28;20560;-64
2023/03/21 09:43:38;;;;;;;28.70;18.63;;;9.70;99.90;;;;;;5024998;28;20098;-64
2023/03/21 09:46:15;;;;;;;27.30;18.23;;;9.70;99.90;;;;;;5010366;28;20414;-64
2023/03/21 09:49:00;;;;;;;25.88;18.08;;;9.80;99.90;;;;;;5021683;28;20041;-64
2023/03/21 09:51:31;;;;;;;29.75;17.63;;;9.70;99.90;;;;;;5036641;28;20780;-65
2023/03/21 09:54:02;;;;;;;29.98;19.38;;;9.70;99.90;;;;;;5030936;28;20405;-65
2023/03/21 09:56:29;;;;;;;25.52;18.35;;;9.70;99.90;;;;;;5032911;28;20037;-63
2023/03/21 09:58:58;;;;;;;31.13;18.38;;;9.80;99.90;;;;;;5012041;28;20509;-65
2023/03/21 10:01:40;;;;;;;27.15;18.70;;;9.70;99.90;;;;;;5015934;28;20044;-65
2023/03/21 10:04:10;;;;;;;26.92;18.70;;;9.70;99.90;;;;;;5023825;28;20049;-64
2023/03/21 10:06:39;;;;;;;29.50;17.75;;;9.70;99.90;;;;;;5032484;28;20059;-64
2023/03/21 10:09:12;;;;;;;28.90;17.70;;;9.70;99.90;;;;;;5015248;28;20125;-64
2023/03/21 10:11:48;;;;;;;26.95;17.38;;;9.70;99.90;;;;;;5025340;28;20033;-65
2023/03/21 10:14:31;;;;;;;25.33;17.90;;;9.70;99.90;;;;;;5051741;28;20055;-65
2023/03/21 10:17:20;;;;;;;24.92;15.82;;;9.80;99.90;;;;;;5035059;28;20045;-65
2023/03/21 10:19:49;;;;;;;22.30;14.57;;;9.70;99.90;;;;;;5015619;28;20072;-65
2023/03/21 10:22:15;;;;;;;25.58;16.40;;;9.80;99.90;;;;;;5033969;28;20813;-64
2023/03/21 10:24:41;;;;;;;25.25;14.93;;;9.90;99.90;;;;;;5042865;28;20049;-65
2023/03/21 10:27:08;;;;;;;24.35;14.75;;;9.90;99.90;;;;;;5047549;28;20073;-65
2023/03/21 10:29:42;;;;;;;24.52;14.75;;;10.00;99.90;;;;;;5034334;28;20508;-66
2023/03/21 10:32:12;;;;;;;20.67;13.25;;;10.00;99.90;;;;;;5034307;28;20041;-66
2023/03/21 10:34:51;;;;;;;26.75;14.52;;;10.10;99.90;;;;;;5046321;28;20037;-65
2023/03/21 10:37:17;;;;;;;21.65;13.90;;;10.10;99.90;;;;;;5034270;28;20056;-66
2023/03/21 10:39:46;;;;;;;28.10;13.68;;;10.10;99.90;;;;;;5034552;28;20409;-65
2023/03/21 10:42:22;;;;;;;19.60;14.07;;;10.20;99.90;;;;;;5033362;28;20055;-65
2023/03/21 10:44:50;;;;;;;21.08;13.57;;;10.30;99.90;;;;;;5034788;28;20045;-65
2023/03/21 10:47:35;;;;;;;20.88;12.45;;;10.40;99.90;;;;;;5017687;28;20052;-66
2023/03/21 10:50:05;;;;;;;22.58;14.07;;;10.50;99.90;;;;;;5018583;28;20041;-66
2023/03/21 10:52:33;;;;;;;20.27;13.82;;;10.50;99.90;;;;;;5028446;28;20393;-66
2023/03/21 10:55:20;;;;;;;20.08;11.77;;;10.60;99.90;;;;;;5033385;28;20049;-66
2023/03/21 10:57:46;;;;;;;20.85;12.68;;;10.70;99.90;;;;;;5017443;28;20052;-66
2023/03/21 11:00:24;;;;;;;18.33;12.57;;;10.70;99.90;;;;;;5033103;28;20037;-66
2023/03/21 11:02:52;;;;;;;17.65;10.43;;;10.70;99.90;;;;;;5040657;28;20402;-67
2023/03/21 11:05:33;;;;;;;17.92;10.25;;;10.80;99.90;;;;;;5039770;28;20040;-66
2023/03/21 11:08:01;;;;;;;16.88;10.77;;;10.80;99.90;;;;;;5047445;28;20036;-66
2023/03/21 11:10:33;;;;;;;16.35;10.18;;;10.90;99.90;;;;;;5013932;28;20562;-66
2023/03/21 11:13:15;;;;;;;12.90;9.15;;;10.90;99.90;;;;;;5033254;28;20510;-67
2023/03/21 11:15:52;;;;;;;16.45;10.13;;;10.90;99.90;;;;;;5051824;28;20056;-67
2023/03/21 11:18:19;;;;;;;13.80;9.02;;;10.90;99.90;;;;;;5025001;28;20053;-67
2023/03/21 11:20:54;;;;;;;16.40;9.15;;;11.00;99.90;;;;;;5013907;28;20457;-67
2023/03/21 11:23:24;;;;;;;13.23;8.40;;;11.00;99.90;;;;;;5013598;28;20049;-66
2023/03/21 11:25:50;;;;;;;17.50;9.90;;;11.00;99.90;;;;;;5025423;28;20080;-66
2023/03/21 11:28:21;;;;;;;15.27;9.10;;;11.10;99.90;;;;;;5027833;28;20029;-66
2023/03/21 11:30:56;;;;;;;17.30;8.98;;;11.20;99.90;;;;;;5032630;28;20048;-66
2023/03/21 11:33:26;;;;;;;14.02;9.30;;;11.20;99.90;;;;;;5000256;28;20094;-66
2023/03/21 11:36:05;;;;;;;15.77;9.23;;;11.20;99.90;;;;;;4999023;28;20128;-66
2023/03/21 11:38:36;;;;;;;14.63;8.40;;;11.20;99.90;;;;;;5033016;28;20049;-65
2023/03/21 11:41:03;;;;;;;18.02;9.27;;;11.20;99.90;;;;;;5015834;28;20084;-65
2023/03/21 11:43:33;;;;;;;14.93;9.10;;;11.20;99.90;;;;;;5018120;28;20406;-65
2023/03/21 11:46:08;;;;;;;15.88;10.02;;;11.20;99.90;;;;;;5030792;28;20473;-65
2023/03/21 11:48:42;;;;;;;16.92;9.93;;;11.30;99.90;;;;;;4997460;28;20042;-65
2023/03/21 11:51:27;;;;;;;13.50;9.63;;;11.40;99.90;;;;;;5013363;28;20041;-66
2023/03/21 11:53:58;;;;;;;14.10;8.60;;;11.30;99.90;;;;;;5034938;28;20035;-66
2023/03/21 11:56:33;;;;;;;16.10;10.02;;;11.30;99.90;;;;;;5032754;28;20101;-67
2023/03/21 11:59:06;;;;;;;14.57;9.85;;;11.20;99.90;;;;;;5020532;28;20081;-66
2023/03/21 12:01:50;;;;;;;13.80;8.73;;;11.20;99.90;;;;;;5051164;28;20033;-67
2023/03/21 12:04:25;;;;;;;17.52;10.88;;;11.20;99.90;;;;;;5006007;28;20048;-67
2023/03/21 12:07:10;;;;;;;17.27;10.63;;;11.10;99.90;;;;;;5012425;28;20061;-67
2023/03/21 12:10:10;;;;;;;17.77;9.27;;;11.10;99.90;;;;;;5030936;28;20049;-66
2023/03/21 12:12:57;;;;;;;17.02;9.70;;;11.10;99.90;;;;;;5007827;28;20045;-69
2023/03/21 12:15:41;;;;;;;16.98;10.02;;;11.00;99.90;;;;;;5025623;28;20382;-68
2023/03/21 12:18:26;;;;;;;15.90;9.52;;;11.00;99.90;;;;;;5015198;28;20041;-68
2023/03/21 12:20:52;;;;;;;;;;;11.00;99.90;;;;;;5015258;28;20052;-68
2023/03/21 12:23:36;;;;;;;14.38;10.38;;;10.90;99.90;;;;;;5023357;28;20026;-72
2023/03/21 12:26:02;;;;;;;15.43;10.75;;;10.90;99.90;;;;;;5032613;28;20474;-67
2023/03/21 12:28:46;;;;;;;16.52;10.60;;;10.90;99.90;;;;;;5048244;28;20036;-68
2023/03/21 12:31:56;;;;;;;17.83;10.85;;;11.00;99.90;;;;;;5033273;28;20034;-69
2023/03/21 12:34:48;;;;;;;16.42;10.23;;;11.00;99.90;;;;;;4993694;28;20067;-68
2023/03/21 12:37:33;;;;;;;14.40;10.07;;;11.10;99.90;;;;;;5034662;28;20052;-68
2023/03/21 12:40:36;;;;;;;17.05;10.70;;;11.10;99.90;;;;;;5034620;28;20520;-68
2023/03/21 12:43:29;;;;;;;15.77;10.77;;;11.30;99.90;;;;;;5034096;28;20125;-68
2023/03/21 12:46:21;;;;;;;16.92;10.52;;;11.40;99.90;;;;;;5052877;28;20040;-68
2023/03/21 12:49:12;;;;;;;19.60;10.13;;;11.50;99.90;;;;;;5034236;28;20098;-68
2023/03/21 12:51:50;;;;;;;18.67;10.98;;;11.60;99.90;;;;;;5052638;28;20041;-68
2023/03/21 12:54:28;;;;;;;19.73;10.93;;;11.60;99.90;;;;;;5034298;28;20089;-68